メインページ
METAR-TAF:

METAR-TAF

空港 :

エルドラド国際空港

ボゴタ, コロンビア

緯度: 04-43N, 経度: 074-09W, 海抜: 2547m

現時点の気象観測

当レポートは1時間10分前の06:00(UTC)に作成
北東の風 5kt
気温 10°C
湿度 87%
気圧 1028 hPa
視程10km以上
高度2000ftの雲は散在している
高度20000ftの雲は散在している

METAR: SKBO 130600Z 05005KT 9999 SCT020 SCT200 10/08 A3035

時間: 02:10 (07:10 UTC)

予報

当レポートは2時間10分前の05:00(UTC)に作成
予報は13日の 06時(UTC)から 14日の 06時(UTC)まで有効
変向風 2kt
視程10km以上
高度1500ftの雲は散在している
高度8000ftの千切れ雲あり
確率 40% :
13日の 06時(UTC)から 13日の 10時(UTC)まで一時的に
視程: 6000m
霧雨
13日の 15時(UTC)から 13日の 17時(UTC)まで徐々に
西の風 10kt
13日の 18時(UTC)から 13日の 22時(UTC)まで一時的に
視程: 6000m
高度1700ftの雲は散在している, 積乱雲.
激しい雷雨

TAF: SKBO 130500Z 1306/1406 VRB02KT 9999 SCT015 BKN080 PROB40 TEMPO 1306/1310 6000 DZ BECMG 1315/1317 27010KT TEMPO 1318/1322 6000 TS SCT017CB TX19/1318Z TN10/1311Z

4,000以上の空港の気象観測と天気予報(METAR報とTAF報)

利用可能な観測所は地図上に黄色い丸と赤い丸で示す。

丸の上にカーソルを重ねると観測所名を参照できる。

次にクリックすると気象観測と天気予報を参照できる。

マップの切り替え:黒色「×」印の緑ボタンをクリックして拡大、「-」印の緑ボタンをクリックして縮小、緑色の三角印をクリックして隣りの地図に切り替え


METAR-TAF: